Time;durP1;ratioP1;P1;durP2;ratioP2;P2;SDS_P1;SDS_P2;PMS_P1;PMS_P2;Temp;Humidity;BMP_temperature;BMP_pressure;BME280_temperature;BME280_humidity;BME280_pressure;Samples;Min_cycle;Max_cycle;Signal;HPM_P1;HPM_P2
2023/01/28 03:00:39;;;;;;;21.10;18.90;;;0.70;99.90;;;;;;6015225;23;20456;-76
2023/01/28 03:03:15;;;;;;;22.30;20.10;;;0.70;99.90;;;;;;4916343;29;20471;-76
2023/01/28 03:06:04;;;;;;;21.20;19.13;;;0.70;99.90;;;;;;4906612;29;20514;-77
2023/01/28 03:36:47;;;;;;;21.70;19.47;;;0.70;99.90;;;;;;4900904;29;20484;-77
2023/01/28 03:39:31;;;;;;;20.93;18.90;;;0.70;99.90;;;;;;4903924;29;20464;-76
2023/01/28 03:42:00;;;;;;;22.17;19.83;;;0.60;99.90;;;;;;4903794;29;20998;-76
2023/01/28 03:47:12;;;;;;;21.63;19.57;;;0.70;99.90;;;;;;4905492;29;20447;-77
2023/01/28 03:49:44;;;;;;;23.03;20.73;;;0.60;99.90;;;;;;4897872;29;20465;-76
2023/01/28 03:52:12;;;;;;;22.20;20.00;;;0.60;99.90;;;;;;4903826;29;20863;-77
2023/01/28 03:54:39;;;;;;;22.27;19.97;;;0.50;99.90;;;;;;4903651;29;20451;-77
2023/01/28 03:57:05;;;;;;;21.10;19.00;;;0.50;99.90;;;;;;4907995;29;21118;-76
2023/01/28 03:59:33;;;;;;;22.50;20.00;;;0.60;99.90;;;;;;4900428;29;20450;-77
2023/01/28 04:02:02;;;;;;;21.83;19.63;;;0.60;99.90;;;;;;4906807;29;20998;-76
2023/01/28 04:04:31;;;;;;;22.33;20.23;;;0.60;99.90;;;;;;4902433;29;20483;-76
2023/01/28 04:07:00;;;;;;;21.47;19.47;;;0.60;99.90;;;;;;4901132;29;20558;-77
2023/01/28 04:10:01;;;;;;;21.87;19.83;;;0.60;99.90;;;;;;4901165;29;20971;-77
2023/01/28 04:12:57;;;;;;;21.27;19.23;;;0.60;99.90;;;;;;4907335;29;20508;-77
2023/01/28 04:15:25;;;;;;;22.37;20.07;;;0.60;99.90;;;;;;4901510;29;20474;-76
2023/01/28 04:17:54;;;;;;;22.13;20.03;;;0.60;99.90;;;;;;4901663;29;20740;-77
2023/01/28 04:20:28;;;;;;;21.00;18.87;;;0.60;99.90;;;;;;4902937;29;20462;-77
2023/01/28 04:22:59;;;;;;;21.63;19.57;;;0.60;99.90;;;;;;4904008;29;20454;-77
2023/01/28 04:25:26;;;;;;;22.43;20.17;;;0.60;99.90;;;;;;4906041;29;20470;-77
2023/01/28 04:27:53;;;;;;;20.80;18.90;;;0.60;99.90;;;;;;4903585;29;20507;-77
2023/01/28 04:30:22;;;;;;;22.83;20.63;;;0.60;99.90;;;;;;4903837;29;20458;-77
2023/01/28 04:33:04;;;;;;;21.03;18.97;;;0.70;99.90;;;;;;4903241;29;21006;-77
2023/01/28 04:36:07;;;;;;;21.60;19.60;;;0.60;99.90;;;;;;4894173;29;20544;-77
2023/01/28 04:38:55;;;;;;;22.70;20.30;;;0.70;99.90;;;;;;4865591;29;20888;-81
2023/01/28 04:41:37;;;;;;;21.47;19.30;;;0.70;99.90;;;;;;4902547;29;20462;-76
2023/01/28 04:44:12;;;;;;;21.73;19.53;;;0.70;99.90;;;;;;4905576;29;20462;-76
2023/01/28 04:47:01;;;;;;;20.67;18.73;;;0.60;99.90;;;;;;4902933;29;21026;-82
2023/01/28 04:50:01;;;;;;;20.20;18.30;;;0.60;99.90;;;;;;4883093;29;20828;-82
2023/01/28 04:53:03;;;;;;;21.30;19.40;;;0.70;99.90;;;;;;4879799;29;20575;-76
2023/01/28 04:55:47;;;;;;;21.77;19.67;;;0.60;99.90;;;;;;4896314;29;20978;-77
2023/01/28 04:58:14;;;;;;;21.27;19.30;;;0.60;99.90;;;;;;4893836;29;20477;-77
2023/01/28 05:00:43;;;;;;;21.03;19.03;;;0.60;99.90;;;;;;4899825;29;20477;-77
2023/01/28 05:03:10;;;;;;;22.37;20.07;;;0.70;99.90;;;;;;4905260;29;20928;-77
2023/01/28 05:05:37;;;;;;;21.70;19.70;;;0.60;99.90;;;;;;4900447;29;20570;-77
2023/01/28 05:08:18;;;;;;;21.80;19.60;;;0.60;99.90;;;;;;4908227;29;20469;-78
2023/01/28 05:10:47;;;;;;;21.00;18.90;;;0.60;99.90;;;;;;4907212;29;20478;-77
2023/01/28 05:13:15;;;;;;;20.93;18.93;;;0.70;99.90;;;;;;4903253;29;20447;-77
2023/01/28 05:15:42;;;;;;;21.47;19.47;;;0.70;99.90;;;;;;4906001;29;20443;-77
2023/01/28 05:18:09;;;;;;;20.60;18.73;;;0.70;99.90;;;;;;4907012;29;20531;-77
2023/01/28 05:20:41;;;;;;;20.33;18.43;;;0.70;99.90;;;;;;4906224;29;20472;-77
2023/01/28 05:23:07;;;;;;;22.03;19.83;;;0.60;99.90;;;;;;4907173;29;20919;-77
2023/01/28 05:25:55;;;;;;;21.07;19.07;;;0.60;99.90;;;;;;4901837;29;20472;-77
2023/01/28 05:28:22;;;;;;;20.83;18.83;;;0.70;99.90;;;;;;4908623;29;20459;-77
2023/01/28 05:30:49;;;;;;;21.33;18.50;;;0.80;99.90;;;;;;4905665;29;20487;-77
2023/01/28 05:33:16;;;;;;;20.80;18.90;;;0.80;99.90;;;;;;4901314;29;20478;-76
2023/01/28 05:35:43;;;;;;;22.53;20.27;;;0.80;99.90;;;;;;4898193;29;20993;-76
2023/01/28 05:38:10;;;;;;;22.60;20.37;;;0.80;99.90;;;;;;4898741;29;20451;-77
2023/01/28 05:40:37;;;;;;;21.47;19.57;;;0.80;99.90;;;;;;4905622;29;20519;-76
2023/01/28 05:43:06;;;;;;;21.13;19.13;;;0.80;99.90;;;;;;4902026;29;20459;-76
2023/01/28 05:45:38;;;;;;;22.00;19.87;;;0.80;99.90;;;;;;4910337;29;20572;-76
2023/01/28 05:48:22;;;;;;;20.97;19.00;;;0.80;99.90;;;;;;4903974;29;20550;-77
2023/01/28 05:51:27;;;;;;;21.10;19.00;;;0.70;99.90;;;;;;4903533;29;20470;-77
2023/01/28 05:53:57;;;;;;;19.60;17.80;;;0.70;99.90;;;;;;4907985;29;20547;-76
2023/01/28 05:56:24;;;;;;;20.97;18.97;;;0.70;99.90;;;;;;4903023;29;20445;-76
2023/01/28 05:58:52;;;;;;;20.30;18.47;;;0.70;99.90;;;;;;4911124;29;20446;-76
2023/01/28 06:01:20;;;;;;;19.10;17.53;;;0.70;99.90;;;;;;4905244;29;20494;-77
2023/01/28 06:03:52;;;;;;;20.67;18.77;;;0.80;99.90;;;;;;4905694;29;20990;-77
2023/01/28 06:06:19;;;;;;;20.13;18.30;;;0.80;99.90;;;;;;4906024;29;20486;-77
2023/01/28 06:08:46;;;;;;;20.13;18.23;;;0.80;99.90;;;;;;4906018;29;20840;-77
2023/01/28 06:11:19;;;;;;;20.37;18.50;;;0.80;99.90;;;;;;4908575;29;21014;-76
2023/01/28 06:13:48;;;;;;;20.83;18.97;;;0.80;99.90;;;;;;4906567;29;20455;-77
2023/01/28 06:16:35;;;;;;;20.67;18.57;;;0.80;99.90;;;;;;4903502;29;21087;-77
2023/01/28 06:19:25;;;;;;;19.37;17.57;;;0.80;99.90;;;;;;4907947;29;20980;-76
2023/01/28 06:21:52;;;;;;;19.70;17.90;;;0.80;99.90;;;;;;4906106;29;20483;-77
2023/01/28 06:24:19;;;;;;;19.93;18.13;;;0.80;99.90;;;;;;4901105;29;20472;-77
2023/01/28 06:26:46;;;;;;;19.17;17.47;;;0.80;99.90;;;;;;4908608;29;20538;-76
2023/01/28 06:29:13;;;;;;;19.93;18.03;;;0.80;99.90;;;;;;4904177;29;20451;-81
2023/01/28 06:31:41;;;;;;;20.20;18.40;;;0.80;99.90;;;;;;4904066;29;20498;-81
2023/01/28 06:34:12;;;;;;;19.03;17.43;;;0.80;99.90;;;;;;4907301;29;20878;-81
2023/01/28 06:36:39;;;;;;;20.43;18.40;;;0.80;99.90;;;;;;4907915;29;20507;-84
2023/01/28 06:39:06;;;;;;;20.13;18.43;;;0.80;99.90;;;;;;4908317;29;20975;-82
2023/01/28 06:41:33;;;;;;;19.23;17.63;;;0.80;99.90;;;;;;4906586;29;20480;-80
2023/01/28 06:44:00;;;;;;;20.17;18.37;;;0.80;99.90;;;;;;4905581;29;20507;-80
2023/01/28 06:46:27;;;;;;;19.80;18.17;;;0.80;99.90;;;;;;4900903;29;20944;-81
2023/01/28 06:48:55;;;;;;;20.73;18.70;;;0.80;99.90;;;;;;4907533;29;20455;-82
2023/01/28 06:51:22;;;;;;;20.30;18.40;;;0.80;99.90;;;;;;4907741;29;20538;-82
2023/01/28 06:53:49;;;;;;;19.60;17.90;;;0.80;99.90;;;;;;4901861;29;20459;-81
2023/01/28 06:56:16;;;;;;;20.63;18.70;;;0.80;99.90;;;;;;4896538;29;20455;-77
2023/01/28 06:58:42;;;;;;;20.17;18.50;;;0.80;99.90;;;;;;4904947;29;20604;-77
2023/01/28 07:01:09;;;;;;;19.50;17.70;;;0.90;99.90;;;;;;4900142;29;20492;-77
2023/01/28 07:03:36;;;;;;;20.30;18.40;;;0.90;99.90;;;;;;4905027;29;20440;-76
2023/01/28 07:06:05;;;;;;;21.63;19.40;;;0.90;99.90;;;;;;4904375;29;20501;-76
2023/01/28 07:08:32;;;;;;;20.83;18.93;;;1.00;99.90;;;;;;4897352;29;20514;-77
2023/01/28 07:10:59;;;;;;;20.90;19.00;;;1.00;99.90;;;;;;4903415;29;20505;-77
2023/01/28 07:13:26;;;;;;;21.47;19.27;;;1.00;99.90;;;;;;4906868;29;20829;-77
2023/01/28 07:15:53;;;;;;;20.77;18.97;;;1.00;99.90;;;;;;4905540;29;20443;-76
2023/01/28 07:18:20;;;;;;;20.43;18.53;;;1.00;99.90;;;;;;4899405;29;20482;-77
2023/01/28 07:20:46;;;;;;;20.53;18.73;;;1.00;99.90;;;;;;4906486;29;20482;-77
2023/01/28 07:23:14;;;;;;;19.70;18.03;;;1.00;99.90;;;;;;4902576;29;20446;-77
2023/01/28 07:25:41;;;;;;;19.50;17.80;;;1.00;99.90;;;;;;4903049;29;20469;-81
2023/01/28 07:28:08;;;;;;;19.60;17.90;;;1.10;99.90;;;;;;4903677;29;20529;-80
2023/01/28 07:30:35;;;;;;;20.53;18.83;;;1.10;99.90;;;;;;4896022;29;20939;-85
2023/01/28 07:33:02;;;;;;;20.50;18.70;;;1.10;99.90;;;;;;4905149;29;20508;-80
2023/01/28 07:35:29;;;;;;;21.40;19.60;;;1.10;99.90;;;;;;4903010;29;20513;-81
2023/01/28 07:37:57;;;;;;;19.63;18.03;;;1.10;99.90;;;;;;4904110;29;20553;-81
2023/01/28 07:40:26;;;;;;;20.67;18.87;;;1.10;99.90;;;;;;4903325;29;20447;-80
2023/01/28 07:42:55;;;;;;;20.40;18.60;;;1.10;99.90;;;;;;4905635;29;20476;-83
2023/01/28 07:45:23;;;;;;;21.07;19.07;;;1.10;99.90;;;;;;4905903;29;20463;-82
2023/01/28 07:47:54;;;;;;;20.20;18.30;;;1.10;99.90;;;;;;4904138;29;20462;-81
2023/01/28 07:50:21;;;;;;;19.43;17.73;;;1.10;99.90;;;;;;4904699;29;20460;-81
2023/01/28 07:52:48;;;;;;;19.83;18.20;;;1.20;99.90;;;;;;4897209;29;20491;-82
2023/01/28 07:55:15;;;;;;;20.07;18.37;;;1.20;99.90;;;;;;4907197;29;20206;-81
2023/01/28 07:57:51;;;;;;;19.80;18.10;;;1.20;99.90;;;;;;4904108;29;20457;-80
2023/01/28 08:00:19;;;;;;;20.33;18.40;;;1.20;99.90;;;;;;4890039;29;20441;-77
2023/01/28 08:02:47;;;;;;;19.23;17.63;;;1.20;99.90;;;;;;4901359;29;20857;-77
2023/01/28 08:05:16;;;;;;;19.83;18.10;;;1.30;99.90;;;;;;4908101;29;20963;-76
2023/01/28 08:07:43;;;;;;;19.20;17.57;;;1.30;99.90;;;;;;4907226;29;20476;-77
2023/01/28 08:10:11;;;;;;;19.23;17.47;;;1.40;99.90;;;;;;4906757;29;20445;-77
2023/01/28 08:12:38;;;;;;;19.67;17.90;;;1.30;99.90;;;;;;4906096;29;21040;-77
2023/01/28 08:15:08;;;;;;;20.27;18.50;;;1.30;99.90;;;;;;4908212;29;20937;-82
2023/01/28 08:17:35;;;;;;;19.57;17.87;;;1.40;99.90;;;;;;4900159;29;20519;-77
2023/01/28 08:20:02;;;;;;;19.27;17.57;;;1.40;99.90;;;;;;4905697;29;20462;-77
2023/01/28 08:22:28;;;;;;;18.17;16.70;;;1.40;99.90;;;;;;4904270;29;20483;-77
2023/01/28 08:24:55;;;;;;;19.40;17.70;;;1.40;99.90;;;;;;4906884;29;20531;-77
2023/01/28 08:27:22;;;;;;;19.40;17.70;;;1.50;99.90;;;;;;4904072;29;20500;-78
2023/01/28 08:29:49;;;;;;;19.10;17.40;;;1.50;99.90;;;;;;4907207;29;20526;-77
2023/01/28 08:32:17;;;;;;;20.07;18.30;;;1.60;99.90;;;;;;4905926;29;20572;-77
2023/01/28 08:34:44;;;;;;;19.80;18.00;;;1.60;99.90;;;;;;4907724;29;20211;-77
2023/01/28 08:37:11;;;;;;;19.27;17.47;;;1.60;99.90;;;;;;4906245;29;20253;-76
2023/01/28 08:39:37;;;;;;;19.47;17.67;;;1.60;99.90;;;;;;4906741;29;20511;-77
2023/01/28 08:42:05;;;;;;;19.37;17.77;;;1.70;99.90;;;;;;4909709;29;20844;-77
2023/01/28 08:44:32;;;;;;;20.10;18.40;;;1.70;99.90;;;;;;4907773;29;20193;-77
2023/01/28 08:46:59;;;;;;;20.80;18.90;;;1.60;99.90;;;;;;4908103;29;20476;-78
2023/01/28 08:49:27;;;;;;;20.17;18.37;;;1.60;99.90;;;;;;4916473;29;20437;-80
2023/01/28 08:51:54;;;;;;;20.80;18.87;;;1.70;99.90;;;;;;4907589;29;20502;-78
2023/01/28 08:54:21;;;;;;;18.60;17.03;;;1.80;99.90;;;;;;4915471;29;20210;-79
2023/01/28 08:56:48;;;;;;;20.20;18.40;;;1.90;99.90;;;;;;4907670;29;20255;-78
2023/01/28 08:59:15;;;;;;;19.60;17.80;;;1.90;99.90;;;;;;4909176;29;20451;-77
2023/01/28 09:01:42;;;;;;;20.63;18.63;;;1.90;99.90;;;;;;4900136;29;20316;-78
2023/01/28 09:04:09;;;;;;;22.73;19.87;;;2.00;99.90;;;;;;4917083;29;20460;-78
2023/01/28 09:06:37;;;;;;;27.13;21.23;;;2.10;99.90;;;;;;4909963;29;20681;-78
2023/01/28 09:09:04;;;;;;;28.03;21.97;;;2.20;99.90;;;;;;4908992;29;20203;-78
2023/01/28 09:11:31;;;;;;;22.50;20.30;;;2.20;99.90;;;;;;4906569;29;20216;-78
2023/01/28 09:13:58;;;;;;;24.90;20.37;;;2.20;99.90;;;;;;4912240;29;20259;-79
2023/01/28 09:16:25;;;;;;;22.53;20.13;;;2.20;99.90;;;;;;4902956;29;20441;-79
2023/01/28 09:18:52;;;;;;;22.47;20.37;;;2.20;99.90;;;;;;4902864;29;20441;-83
2023/01/28 09:21:20;;;;;;;21.27;19.27;;;2.30;99.90;;;;;;4906030;29;20231;-83
2023/01/28 09:23:48;;;;;;;21.13;19.23;;;2.30;99.90;;;;;;4908059;29;20234;-83
2023/01/28 09:26:15;;;;;;;20.17;18.40;;;2.30;99.90;;;;;;4915886;29;20216;-83
2023/01/28 09:28:42;;;;;;;20.43;18.73;;;2.30;99.90;;;;;;4909272;29;20204;-83
2023/01/28 09:31:11;;;;;;;20.87;19.10;;;2.40;99.90;;;;;;4907717;29;20251;-80
2023/01/28 09:33:40;;;;;;;21.00;19.20;;;2.30;99.90;;;;;;4907152;29;20196;-76
2023/01/28 09:36:10;;;;;;;21.57;19.63;;;2.40;99.90;;;;;;4899084;29;20623;-77
2023/01/28 09:38:37;;;;;;;21.13;19.23;;;2.50;99.90;;;;;;4908407;29;20445;-76
2023/01/28 09:41:23;;;;;;;21.07;19.27;;;2.50;99.90;;;;;;4907347;29;20266;-77
2023/01/28 09:44:06;;;;;;;21.00;19.10;;;2.40;99.90;;;;;;4905233;29;20200;-77
2023/01/28 09:46:35;;;;;;;21.50;19.60;;;2.40;99.90;;;;;;4897023;29;20774;-78
2023/01/28 09:49:20;;;;;;;20.57;18.77;;;2.40;99.90;;;;;;4900542;29;20265;-77
2023/01/28 09:51:51;;;;;;;20.90;19.20;;;2.30;99.90;;;;;;4901761;29;20232;-78
2023/01/28 09:54:28;;;;;;;20.80;19.03;;;2.40;99.90;;;;;;4906035;29;20219;-78
2023/01/28 09:57:04;;;;;;;20.03;18.33;;;2.40;99.90;;;;;;4906723;29;20203;-77
2023/01/28 09:59:35;;;;;;;20.93;19.03;;;2.40;99.90;;;;;;4894039;29;20228;-77
2023/01/28 10:02:12;;;;;;;21.60;19.70;;;2.40;99.90;;;;;;4901290;29;20236;-76
2023/01/28 10:04:50;;;;;;;20.63;18.90;;;2.40;99.90;;;;;;4900968;29;20212;-77
2023/01/28 10:07:31;;;;;;;20.47;18.77;;;2.50;99.90;;;;;;4904715;29;20223;-77
2023/01/28 10:10:05;;;;;;;19.00;17.27;;;2.70;99.90;;;;;;4909194;29;20212;-76
2023/01/28 10:12:59;;;;;;;21.80;19.87;;;2.90;99.90;;;;;;4911516;29;20267;-77
2023/01/28 10:15:55;;;;;;;21.07;19.07;;;2.90;99.90;;;;;;4895252;29;20205;-78
2023/01/28 10:18:30;;;;;;;21.47;19.57;;;3.00;99.90;;;;;;4886780;29;20204;-78
2023/01/28 10:21:03;;;;;;;20.37;18.57;;;3.00;99.90;;;;;;4909340;29;20219;-77
2023/01/28 10:23:39;;;;;;;20.43;18.57;;;3.00;99.90;;;;;;4908523;29;20635;-77
2023/01/28 10:26:20;;;;;;;20.50;18.70;;;3.10;99.90;;;;;;4908934;29;20204;-77
2023/01/28 10:28:54;;;;;;;20.70;18.80;;;3.20;99.90;;;;;;4907596;29;20211;-82
2023/01/28 10:31:22;;;;;;;20.67;18.80;;;3.20;99.90;;;;;;4901947;29;20279;-81
2023/01/28 10:33:49;;;;;;;20.33;18.63;;;3.20;99.90;;;;;;4903420;29;20240;-81
2023/01/28 10:36:17;;;;;;;20.53;18.73;;;3.20;99.90;;;;;;4907751;29;20673;-81
2023/01/28 10:38:44;;;;;;;19.53;17.93;;;3.30;99.90;;;;;;4907012;29;20197;-81
2023/01/28 10:41:14;;;;;;;20.67;18.77;;;3.40;99.90;;;;;;4905958;29;20259;-80
2023/01/28 10:43:42;;;;;;;20.00;18.33;;;3.40;99.90;;;;;;4905479;29;20212;-81
2023/01/28 10:46:15;;;;;;;18.33;16.80;;;3.40;99.90;;;;;;4912926;29;20330;-81
2023/01/28 10:48:45;;;;;;;18.80;17.17;;;3.50;99.90;;;;;;4905282;29;20201;-81
2023/01/28 10:51:13;;;;;;;20.03;18.23;;;3.60;99.90;;;;;;4911753;29;20299;-79
2023/01/28 10:53:42;;;;;;;19.03;17.43;;;3.60;99.90;;;;;;4905648;29;20295;-81
2023/01/28 10:56:11;;;;;;;19.37;17.67;;;3.60;99.90;;;;;;4907427;29;20674;-82
2023/01/28 10:58:54;;;;;;;19.57;17.67;;;3.70;99.90;;;;;;4908076;29;20249;-81
2023/01/28 11:01:22;;;;;;;17.60;16.00;;;3.80;99.90;;;;;;4908697;29;20227;-82
2023/01/28 11:03:57;;;;;;;18.50;16.90;;;3.80;99.90;;;;;;4905371;29;20656;-81
2023/01/28 11:06:26;;;;;;;18.33;16.73;;;3.90;99.90;;;;;;4903024;29;20476;-81
2023/01/28 11:08:53;;;;;;;17.73;16.23;;;3.80;99.90;;;;;;4899233;29;20252;-82
2023/01/28 11:11:25;;;;;;;17.53;15.93;;;3.60;99.90;;;;;;4892775;29;20289;-81
2023/01/28 11:13:54;;;;;;;18.57;16.97;;;3.70;99.90;;;;;;4905556;29;20627;-83
2023/01/28 11:16:22;;;;;;;19.30;17.50;;;3.70;99.90;;;;;;4906390;29;20760;-82
2023/01/28 11:18:52;;;;;;;19.13;17.53;;;3.70;99.90;;;;;;4912175;29;20219;-83
2023/01/28 11:21:22;;;;;;;19.03;17.37;;;3.80;99.90;;;;;;4896692;29;20296;-81
2023/01/28 11:23:51;;;;;;;19.10;17.50;;;3.80;99.90;;;;;;4892921;29;20414;-82
2023/01/28 11:26:22;;;;;;;19.00;17.40;;;3.70;99.90;;;;;;4902256;29;20260;-82
2023/01/28 11:28:51;;;;;;;18.73;17.17;;;3.60;99.90;;;;;;4905475;29;20593;-82
2023/01/28 11:31:20;;;;;;;17.90;16.40;;;3.50;99.90;;;;;;4910153;29;20385;-81
2023/01/28 11:33:52;;;;;;;18.47;16.87;;;3.40;99.90;;;;;;4898091;29;20235;-81
2023/01/28 11:36:21;;;;;;;18.60;17.00;;;3.50;99.90;;;;;;4901368;29;20682;-81
2023/01/28 11:38:53;;;;;;;18.23;16.83;;;3.50;99.90;;;;;;4908131;29;20197;-81
2023/01/28 11:41:27;;;;;;;19.70;18.10;;;3.30;99.90;;;;;;4917033;29;20232;-81
2023/01/28 11:43:54;;;;;;;19.00;17.40;;;3.30;99.90;;;;;;4907064;29;20626;-82
2023/01/28 11:47:03;;;;;;;19.33;17.53;;;3.30;99.90;;;;;;4907081;29;20205;-81
2023/01/28 11:49:44;;;;;;;18.70;17.10;;;3.30;99.90;;;;;;4863878;29;20204;-80
2023/01/28 11:52:18;;;;;;;18.90;17.20;;;3.40;99.90;;;;;;4896937;29;20713;-81
2023/01/28 11:54:57;;;;;;;17.60;16.10;;;3.40;99.90;;;;;;4908693;29;20291;-79
2023/01/28 11:57:32;;;;;;;20.03;18.17;;;3.30;99.90;;;;;;4906162;29;20200;-81
2023/01/28 12:00:30;;;;;;;18.03;16.33;;;3.30;99.90;;;;;;4909072;29;20588;-81
2023/01/28 12:03:14;;;;;;;19.67;17.87;;;3.40;99.90;;;;;;4904909;29;20268;-82
2023/01/28 12:05:49;;;;;;;19.20;17.47;;;3.30;99.90;;;;;;4907076;29;20280;-82
2023/01/28 12:08:23;;;;;;;18.50;16.87;;;3.20;99.90;;;;;;4914172;29;20227;-82
2023/01/28 12:11:06;;;;;;;19.27;17.47;;;3.00;99.90;;;;;;4878111;29;20603;-81
2023/01/28 12:13:48;;;;;;;18.67;16.97;;;2.90;99.90;;;;;;4896694;29;20669;-82
2023/01/28 12:16:34;;;;;;;19.17;17.37;;;3.00;99.90;;;;;;4904803;29;20777;-81
2023/01/28 12:19:22;;;;;;;18.50;16.83;;;3.10;99.90;;;;;;4911681;29;20627;-81
2023/01/28 12:22:09;;;;;;;18.87;17.10;;;3.20;99.90;;;;;;4899027;29;20213;-81
2023/01/28 12:24:47;;;;;;;19.93;18.13;;;3.30;99.90;;;;;;4897585;29;20557;-81
2023/01/28 12:27:30;;;;;;;19.77;17.67;;;3.40;99.90;;;;;;4908238;29;20267;-76
2023/01/28 12:30:10;;;;;;;19.23;17.43;;;3.30;99.90;;;;;;4901031;29;20216;-77
2023/01/28 12:32:48;;;;;;;19.10;17.30;;;3.40;99.90;;;;;;4905809;29;20299;-77
2023/01/28 12:35:43;;;;;;;18.60;16.90;;;3.10;99.90;;;;;;4913416;29;20271;-76
2023/01/28 12:38:17;;;;;;;18.40;16.70;;;3.00;99.90;;;;;;4907222;29;20725;-77
2023/01/28 12:41:02;;;;;;;17.93;16.33;;;3.00;99.90;;;;;;4911821;29;20225;-77
2023/01/28 12:43:55;;;;;;;19.53;17.07;;;3.00;99.90;;;;;;4898012;29;20215;-78
2023/01/28 12:46:42;;;;;;;19.07;17.37;;;3.00;99.90;;;;;;4909551;29;20684;-77
2023/01/28 12:49:14;;;;;;;17.90;16.43;;;3.00;99.90;;;;;;4909239;29;20276;-77
2023/01/28 12:51:49;;;;;;;18.83;17.23;;;3.00;99.90;;;;;;4903833;29;20231;-77
2023/01/28 12:54:22;;;;;;;18.57;16.87;;;3.00;99.90;;;;;;4903330;29;20720;-77
2023/01/28 12:56:52;;;;;;;20.07;18.23;;;3.00;99.90;;;;;;4908764;29;20204;-77
2023/01/28 12:59:25;;;;;;;19.73;17.77;;;2.90;99.90;;;;;;4907638;29;20578;-81
2023/01/28 13:02:00;;;;;;;20.50;18.33;;;2.80;99.90;;;;;;4902458;29;20244;-81
2023/01/28 13:04:34;;;;;;;19.43;17.53;;;2.70;99.90;;;;;;4912270;29;20208;-82
2023/01/28 13:07:04;;;;;;;19.20;17.40;;;2.70;99.90;;;;;;4907417;29;20468;-83
2023/01/28 13:09:36;;;;;;;20.10;18.10;;;2.80;99.90;;;;;;4916439;29;20212;-82
2023/01/28 13:12:05;;;;;;;19.57;17.77;;;2.80;99.90;;;;;;4906795;29;20228;-76
2023/01/28 13:14:33;;;;;;;21.80;18.97;;;2.70;99.90;;;;;;4908293;29;20208;-77
2023/01/28 13:17:09;;;;;;;21.47;19.37;;;2.60;99.90;;;;;;4906659;29;20216;-77
2023/01/28 13:19:38;;;;;;;21.40;19.30;;;2.60;99.90;;;;;;4914553;29;20299;-76
2023/01/28 13:22:13;;;;;;;21.37;18.87;;;2.60;99.90;;;;;;4909987;29;20266;-76
2023/01/28 13:24:41;;;;;;;19.17;17.37;;;2.60;99.90;;;;;;4908474;29;20219;-78
2023/01/28 13:27:21;;;;;;;19.53;17.67;;;2.70;99.90;;;;;;4907346;29;20197;-77
2023/01/28 13:29:48;;;;;;;18.47;16.77;;;2.70;99.90;;;;;;4910233;29;20200;-78
2023/01/28 13:32:31;;;;;;;18.57;16.87;;;2.70;99.90;;;;;;4897097;29;20228;-78
2023/01/28 13:35:01;;;;;;;19.50;17.60;;;2.80;99.90;;;;;;4898512;29;20205;-77
2023/01/28 13:37:33;;;;;;;19.57;17.53;;;2.80;99.90;;;;;;4888740;29;20718;-78
2023/01/28 13:40:08;;;;;;;20.00;18.10;;;2.90;99.90;;;;;;4894645;29;20440;-77
2023/01/28 13:42:35;;;;;;;20.43;18.43;;;2.90;99.90;;;;;;4901323;29;20219;-77
2023/01/28 13:45:23;;;;;;;21.57;19.30;;;2.90;99.90;;;;;;4905250;29;20950;-76
2023/01/28 13:47:53;;;;;;;19.60;17.60;;;2.90;99.90;;;;;;4906382;29;20801;-78
2023/01/28 13:50:23;;;;;;;19.93;17.83;;;2.90;99.90;;;;;;4907196;29;20879;-77
2023/01/28 13:52:56;;;;;;;23.27;19.60;;;3.00;99.90;;;;;;4906978;29;20451;-77
2023/01/28 13:55:27;;;;;;;20.10;18.03;;;3.10;99.90;;;;;;4908292;29;20204;-77
2023/01/28 13:58:31;;;;;;;19.23;17.37;;;3.20;99.90;;;;;;4897642;29;20189;-76
2023/01/28 14:01:31;;;;;;;19.70;17.60;;;3.20;99.90;;;;;;4900143;29;20310;-77
2023/01/28 14:04:33;;;;;;;21.70;18.03;;;3.10;99.90;;;;;;4902801;29;20233;-77
2023/01/28 14:07:18;;;;;;;19.77;17.77;;;3.20;99.90;;;;;;4901424;29;20203;-76
2023/01/28 14:10:01;;;;;;;19.37;17.40;;;3.20;99.90;;;;;;4904588;29;20624;-77
2023/01/28 14:12:52;;;;;;;20.20;18.17;;;3.10;99.90;;;;;;4903095;29;20776;-77
2023/01/28 14:15:48;;;;;;;19.83;18.00;;;3.10;99.90;;;;;;4894191;29;20227;-77
2023/01/28 14:18:24;;;;;;;19.70;17.80;;;3.10;99.90;;;;;;4906345;29;20192;-77
2023/01/28 14:20:54;;;;;;;21.50;19.33;;;3.00;99.90;;;;;;4909133;29;20696;-78
2023/01/28 14:23:25;;;;;;;22.13;19.70;;;2.90;99.90;;;;;;4907394;29;20667;-78
2023/01/28 14:26:11;;;;;;;21.17;18.97;;;2.90;99.90;;;;;;4910128;29;20266;-81
2023/01/28 14:28:49;;;;;;;21.83;19.60;;;2.90;99.90;;;;;;4899308;29;20228;-77
2023/01/28 14:31:22;;;;;;;21.43;19.33;;;2.90;99.90;;;;;;4889098;29;20792;-78
2023/01/28 14:33:49;;;;;;;21.90;19.60;;;2.90;99.90;;;;;;4904489;29;20627;-77
2023/01/28 14:36:16;;;;;;;20.00;18.03;;;2.90;99.90;;;;;;4903597;29;20215;-78
2023/01/28 14:38:44;;;;;;;21.10;18.93;;;2.80;99.90;;;;;;4909405;29;20329;-77
2023/01/28 14:41:21;;;;;;;21.53;19.33;;;2.80;99.90;;;;;;4905949;29;20610;-77
2023/01/28 14:43:52;;;;;;;21.23;19.03;;;2.70;99.90;;;;;;4910536;29;20212;-78
2023/01/28 14:46:30;;;;;;;20.93;18.60;;;2.70;99.90;;;;;;4906728;29;20264;-77
2023/01/28 14:49:17;;;;;;;22.07;19.77;;;2.70;99.90;;;;;;4909458;29;20271;-77
2023/01/28 14:52:17;;;;;;;21.57;18.50;;;2.60;99.90;;;;;;4908331;29;20219;-77
2023/01/28 14:54:55;;;;;;;21.33;19.20;;;2.70;99.90;;;;;;4904028;29;20272;-77
2023/01/28 14:57:37;;;;;;;22.53;20.13;;;2.70;99.90;;;;;;4902219;29;20861;-78
2023/01/28 15:00:19;;;;;;;22.07;19.77;;;2.70;99.90;;;;;;4903985;29;20265;-80
2023/01/28 15:02:46;;;;;;;22.60;20.30;;;2.70;99.90;;;;;;4905906;29;20239;-82
2023/01/28 15:05:18;;;;;;;21.30;19.20;;;2.70;99.90;;;;;;4907808;29;20213;-81
2023/01/28 15:07:47;;;;;;;22.47;20.07;;;2.70;99.90;;;;;;4906470;29;20230;-82
2023/01/28 15:10:17;;;;;;;21.70;19.57;;;2.60;99.90;;;;;;4906691;29;20481;-82
2023/01/28 15:12:55;;;;;;;20.80;18.60;;;2.70;99.90;;;;;;4909377;29;20220;-79
2023/01/28 15:15:30;;;;;;;18.80;17.10;;;2.70;99.90;;;;;;4909241;29;20639;-78
2023/01/28 15:18:02;;;;;;;18.23;16.53;;;2.60;99.90;;;;;;4904905;29;20564;-77
2023/01/28 15:20:29;;;;;;;17.53;16.03;;;2.50;99.90;;;;;;4904057;29;20205;-77
2023/01/28 15:22:56;;;;;;;18.53;16.93;;;2.60;99.90;;;;;;4892630;29;20255;-77
2023/01/28 15:25:27;;;;;;;16.60;15.20;;;2.50;99.90;;;;;;4894510;29;20268;-77
2023/01/28 15:27:58;;;;;;;16.53;15.10;;;2.40;99.90;;;;;;4895884;29;20212;-77
2023/01/28 15:30:30;;;;;;;16.83;15.13;;;2.40;99.90;;;;;;4909766;29;20503;-76
2023/01/28 15:33:02;;;;;;;16.70;15.23;;;2.30;99.90;;;;;;4906921;29;20461;-76
2023/01/28 15:35:29;;;;;;;17.27;15.83;;;2.30;99.90;;;;;;4895218;29;20448;-76
2023/01/28 15:37:56;;;;;;;17.10;15.60;;;2.30;99.90;;;;;;4910284;29;20292;-76
2023/01/28 15:40:24;;;;;;;17.80;16.30;;;2.20;99.90;;;;;;4905011;29;20448;-76
2023/01/28 15:42:57;;;;;;;17.90;16.23;;;2.20;99.90;;;;;;4901919;29;20211;-76
2023/01/28 15:45:26;;;;;;;17.10;15.70;;;2.20;99.90;;;;;;4906399;29;20451;-77
2023/01/28 15:48:02;;;;;;;17.93;16.17;;;2.20;99.90;;;;;;4908869;29;20210;-76
2023/01/28 15:50:29;;;;;;;17.87;16.37;;;2.10;99.90;;;;;;4896251;29;21015;-76
2023/01/28 15:52:56;;;;;;;17.17;15.73;;;2.10;99.90;;;;;;4897902;29;20522;-76
2023/01/28 15:55:37;;;;;;;17.70;16.10;;;2.10;99.90;;;;;;4893324;29;20610;-76
2023/01/28 15:58:32;;;;;;;17.60;16.17;;;2.10;99.90;;;;;;4896141;29;20468;-77
2023/01/28 16:01:13;;;;;;;17.83;16.13;;;2.10;99.90;;;;;;4904022;29;20541;-76
2023/01/28 16:03:42;;;;;;;18.57;16.80;;;2.00;99.90;;;;;;4887237;29;20208;-77
2023/01/28 16:06:11;;;;;;;18.23;16.53;;;2.00;99.90;;;;;;4913094;29;20503;-77
2023/01/28 16:08:41;;;;;;;17.47;15.93;;;2.00;99.90;;;;;;4906087;29;20483;-76
2023/01/28 16:11:10;;;;;;;18.43;16.60;;;2.00;99.90;;;;;;4912503;29;20227;-77
2023/01/28 16:13:43;;;;;;;17.47;16.00;;;1.90;99.90;;;;;;4907116;29;20880;-77
2023/01/28 16:16:12;;;;;;;17.53;16.03;;;2.00;99.90;;;;;;4908468;29;20441;-77
2023/01/28 16:18:42;;;;;;;17.13;15.53;;;2.00;99.90;;;;;;4908531;29;20540;-76
2023/01/28 16:21:12;;;;;;;17.53;16.03;;;2.00;99.90;;;;;;4903570;29;20573;-77
2023/01/28 16:23:39;;;;;;;17.40;16.00;;;2.00;99.90;;;;;;4910210;29;20289;-76
2023/01/28 16:26:19;;;;;;;16.73;15.43;;;2.00;99.90;;;;;;4897653;29;20488;-77
2023/01/28 16:28:46;;;;;;;17.60;16.17;;;2.00;99.90;;;;;;4896292;29;20524;-81
2023/01/28 16:31:15;;;;;;;17.73;16.30;;;2.00;99.90;;;;;;4901689;29;20457;-80
2023/01/28 16:33:41;;;;;;;16.77;15.33;;;1.90;99.90;;;;;;4909026;29;20447;-80
2023/01/28 16:36:16;;;;;;;17.80;16.27;;;2.00;99.90;;;;;;4909675;29;20860;-81